createdAt,value
2023-03-10T00:02:11.041Z,4.70
2023-03-10T00:04:48.964Z,4.90
2023-03-10T00:07:28.073Z,4.80
2023-03-10T00:10:04.246Z,4.50
2023-03-10T00:12:36.069Z,4.30
2023-03-10T00:15:14.677Z,4.10
2023-03-10T00:17:49.752Z,4.00
2023-03-10T00:20:20.932Z,4.00
2023-03-10T00:22:50.912Z,4.30
2023-03-10T00:25:21.341Z,3.90
2023-03-10T00:28:20.129Z,3.20
2023-03-10T00:31:31.271Z,3.40
2023-03-10T00:33:58.575Z,3.60
2023-03-10T00:36:35.801Z,3.80
2023-03-10T00:39:07.722Z,3.60
2023-03-10T00:41:38.538Z,4.20
2023-03-10T00:44:13.211Z,3.30
2023-03-10T00:46:41.310Z,3.00
2023-03-10T00:49:24.143Z,2.90
2023-03-10T00:51:51.323Z,3.00
2023-03-10T00:54:19.440Z,3.50
2023-03-10T00:56:49.350Z,3.00
2023-03-10T00:59:34.932Z,3.10
2023-03-10T01:02:08.231Z,2.90
2023-03-10T01:04:38.522Z,3.10
2023-03-10T01:07:09.557Z,2.90
2023-03-10T01:09:39.157Z,2.90
2023-03-10T01:12:09.535Z,2.70
2023-03-10T01:17:04.879Z,2.50
2023-03-10T01:19:49.697Z,2.90
2023-03-10T01:22:17.712Z,3.10
2023-03-10T01:25:08.280Z,3.00
2023-03-10T01:27:42.731Z,2.80
2023-03-10T01:30:16.814Z,2.90
2023-03-10T01:32:54.837Z,2.60
2023-03-10T01:35:42.687Z,2.60
2023-03-10T01:38:24.874Z,2.60
2023-03-10T01:41:02.182Z,3.00
2023-03-10T01:46:42.189Z,3.10
2023-03-10T01:49:28.418Z,3.10
2023-03-10T01:52:26.822Z,3.00
2023-03-10T01:55:06.875Z,3.00
2023-03-10T01:57:57.661Z,3.20
2023-03-10T02:00:26.380Z,3.20
2023-03-10T02:03:09.774Z,2.60
2023-03-10T02:05:57.161Z,2.20
2023-03-10T02:08:37.138Z,1.80
2023-03-10T02:11:05.229Z,2.00
2023-03-10T02:13:32.736Z,2.00
2023-03-10T02:16:03.196Z,2.40
2023-03-10T02:18:55.148Z,2.10
2023-03-10T02:21:30.829Z,2.20
2023-03-10T02:24:24.863Z,2.30
2023-03-10T02:27:02.740Z,2.50
2023-03-10T02:29:45.489Z,2.40
2023-03-10T02:32:21.456Z,2.30
2023-03-10T02:34:52.029Z,2.00
2023-03-10T02:37:36.006Z,2.20
2023-03-10T02:40:48.479Z,2.10
2023-03-10T02:43:29.652Z,2.30
2023-03-10T02:46:06.108Z,2.40
2023-03-10T02:48:38.667Z,2.50
2023-03-10T02:51:21.594Z,2.50
2023-03-10T02:53:55.426Z,2.80
2023-03-10T02:56:23.182Z,2.70
2023-03-10T02:58:50.480Z,2.50
2023-03-10T03:01:32.285Z,1.90
2023-03-10T03:04:11.598Z,2.30
2023-03-10T03:06:43.752Z,2.40
2023-03-10T03:09:15.710Z,3.20
2023-03-10T03:11:46.057Z,3.40
2023-03-10T03:14:20.568Z,3.50
2023-03-10T03:17:04.661Z,3.50
2023-03-10T03:19:38.176Z,4.50
2023-03-10T03:22:11.598Z,3.10
2023-03-10T03:24:43.117Z,2.40
2023-03-10T03:27:13.254Z,2.20
2023-03-10T03:29:44.078Z,1.80
2023-03-10T03:32:12.227Z,1.50
2023-03-10T03:34:55.705Z,2.00
2023-03-10T03:37:31.193Z,2.00
2023-03-10T03:40:02.270Z,1.80
2023-03-10T03:42:54.767Z,1.80
2023-03-10T03:45:40.189Z,1.70
2023-03-10T03:48:36.885Z,2.00
2023-03-10T03:51:16.293Z,1.80
2023-03-10T03:53:45.469Z,2.00
2023-03-10T03:56:13.137Z,2.00
2023-03-10T03:58:45.097Z,2.70
2023-03-10T04:01:14.202Z,3.50
2023-03-10T04:03:47.113Z,3.80
2023-03-10T04:06:15.645Z,3.60
2023-03-10T04:08:45.982Z,2.90
2023-03-10T04:11:16.715Z,3.40
2023-03-10T04:13:49.716Z,4.70
2023-03-10T04:16:18.371Z,4.60
2023-03-10T04:18:58.247Z,4.40
2023-03-10T04:21:27.959Z,4.60
2023-03-10T04:24:05.339Z,3.90
2023-03-10T04:26:38.942Z,4.30
2023-03-10T04:29:13.239Z,3.50
2023-03-10T04:32:02.671Z,3.50
2023-03-10T04:37:28.745Z,3.50
2023-03-10T04:39:56.780Z,4.40
2023-03-10T04:42:31.584Z,3.80
2023-03-10T04:45:03.994Z,3.80
2023-03-10T04:47:30.902Z,3.90
2023-03-10T04:49:58.058Z,3.70
2023-03-10T04:52:24.990Z,3.80
2023-03-10T04:55:04.325Z,3.60
2023-03-10T04:57:32.393Z,3.90
2023-03-10T05:00:02.624Z,3.70
2023-03-10T05:05:02.714Z,3.90
2023-03-10T05:07:29.646Z,3.60
2023-03-10T05:09:57.737Z,3.60
2023-03-10T05:12:28.616Z,3.80
2023-03-10T05:14:55.629Z,3.60
2023-03-10T05:17:22.764Z,3.50
2023-03-10T05:19:49.805Z,3.30
2023-03-10T05:22:17.240Z,3.30
2023-03-10T05:24:47.777Z,3.30
2023-03-10T05:27:19.137Z,3.10
2023-03-10T05:32:37.901Z,2.60
2023-03-10T05:35:14.445Z,3.00
2023-03-10T05:37:46.026Z,2.80
2023-03-10T05:40:15.287Z,3.20
2023-03-10T05:42:42.503Z,3.10
2023-03-10T05:45:10.794Z,3.30
2023-03-10T05:47:38.080Z,3.60
2023-03-10T05:50:05.830Z,3.20
2023-03-10T05:52:36.920Z,3.40
2023-03-10T05:55:12.549Z,4.10
2023-03-10T05:57:39.638Z,4.70
2023-03-10T06:00:09.816Z,6.10
2023-03-10T06:02:41.251Z,5.40
2023-03-10T06:05:12.928Z,4.70
2023-03-10T06:07:40.497Z,5.30
2023-03-10T06:10:09.143Z,5.10
2023-03-10T06:12:45.176Z,5.30
2023-03-10T06:15:17.229Z,5.60
2023-03-10T06:17:52.693Z,6.20
2023-03-10T06:20:33.936Z,6.50
2023-03-10T06:23:00.818Z,5.90
2023-03-10T06:25:36.885Z,5.90
2023-03-10T06:28:03.713Z,7.90
2023-03-10T06:30:30.693Z,6.10
2023-03-10T06:33:01.414Z,7.90
2023-03-10T06:35:29.976Z,6.60
2023-03-10T06:37:56.932Z,7.40
2023-03-10T06:40:25.087Z,8.20
2023-03-10T06:42:51.935Z,7.50
2023-03-10T06:45:22.912Z,9.00
2023-03-10T06:48:02.899Z,8.40
2023-03-10T06:50:41.601Z,8.50
2023-03-10T06:53:09.633Z,7.90
2023-03-10T06:55:37.423Z,7.20
2023-03-10T06:58:06.644Z,5.40
2023-03-10T07:00:33.521Z,4.50
2023-03-10T07:03:10.994Z,4.40
2023-03-10T07:05:40.815Z,3.90
2023-03-10T07:08:07.709Z,3.80
2023-03-10T07:10:34.519Z,3.70
2023-03-10T07:13:10.394Z,3.60
2023-03-10T07:15:39.832Z,6.80
2023-03-10T07:18:07.042Z,7.30
2023-03-10T07:20:59.917Z,5.50
2023-03-10T07:23:27.148Z,4.40
2023-03-10T07:25:56.126Z,4.40
2023-03-10T07:28:25.181Z,4.40
2023-03-10T07:30:53.201Z,4.80
2023-03-10T07:33:20.217Z,4.90
2023-03-10T07:35:48.621Z,5.50
2023-03-10T07:38:15.633Z,5.50
2023-03-10T07:40:50.802Z,5.40
2023-03-10T07:43:17.753Z,5.60
2023-03-10T07:45:44.878Z,5.30
2023-03-10T07:48:11.737Z,5.00
2023-03-10T07:50:39.035Z,4.90
2023-03-10T07:53:25.542Z,5.30
2023-03-10T07:55:52.726Z,4.70
2023-03-10T07:58:20.574Z,5.10
2023-03-10T08:00:56.570Z,5.00
2023-03-10T08:03:25.409Z,4.60
2023-03-10T08:05:52.723Z,5.30
2023-03-10T08:08:19.831Z,4.20
2023-03-10T08:10:46.820Z,4.30
2023-03-10T08:13:22.057Z,4.70
2023-03-10T08:15:49.335Z,5.70
2023-03-10T08:18:17.572Z,5.50
2023-03-10T08:20:44.662Z,5.30
2023-03-10T08:25:55.559Z,5.00
2023-03-10T08:28:22.453Z,5.10
2023-03-10T08:31:03.578Z,4.70
2023-03-10T08:33:33.354Z,5.00
2023-03-10T08:36:16.918Z,4.40
2023-03-10T08:38:44.856Z,4.40
2023-03-10T08:41:33.844Z,4.80
2023-03-10T08:46:54.423Z,5.50
2023-03-10T08:49:21.784Z,6.10
2023-03-10T08:51:49.685Z,5.80
2023-03-10T08:54:21.219Z,5.90
2023-03-10T08:56:48.927Z,6.10
2023-03-10T08:59:23.177Z,6.10
2023-03-10T09:01:50.589Z,6.00
2023-03-10T09:04:18.806Z,5.80
2023-03-10T09:06:45.774Z,6.40
2023-03-10T09:11:54.326Z,6.40
2023-03-10T09:14:21.149Z,6.00
2023-03-10T09:16:48.037Z,5.80
2023-03-10T09:19:24.291Z,6.30
2023-03-10T09:21:53.376Z,7.00
2023-03-10T09:24:20.431Z,7.30
2023-03-10T09:26:47.850Z,7.90
2023-03-10T09:29:17.153Z,6.90
2023-03-10T09:34:29.582Z,7.30
2023-03-10T09:36:56.624Z,6.80
2023-03-10T09:39:25.011Z,5.20
2023-03-10T09:42:14.842Z,3.70
2023-03-10T09:45:24.378Z,3.30
2023-03-10T09:48:15.586Z,4.60
2023-03-10T09:50:55.960Z,4.00
2023-03-10T09:54:19.782Z,3.90
2023-03-10T09:56:47.521Z,3.70
2023-03-10T09:59:16.184Z,3.70
2023-03-10T10:01:54.865Z,3.80
2023-03-10T10:04:31.361Z,4.20
2023-03-10T10:07:00.366Z,4.30
2023-03-10T10:09:34.572Z,5.50
2023-03-10T10:12:23.208Z,5.30
2023-03-10T10:14:57.633Z,5.00
2023-03-10T10:18:05.322Z,5.50
2023-03-10T10:21:11.444Z,5.90
2023-03-10T10:26:32.144Z,5.70
2023-03-10T10:29:06.463Z,5.60
2023-03-10T10:32:09.870Z,5.70
2023-03-10T10:34:51.295Z,5.40
2023-03-10T10:37:23.397Z,5.30
2023-03-10T10:40:23.651Z,4.30
2023-03-10T10:42:53.044Z,4.90
2023-03-10T10:45:25.354Z,5.30
2023-03-10T10:47:54.678Z,5.30
2023-03-10T10:50:22.330Z,5.30
2023-03-10T10:53:15.357Z,5.50
2023-03-10T10:56:03.534Z,5.50
2023-03-10T10:58:33.042Z,5.30
2023-03-10T11:01:03.348Z,5.60
2023-03-10T11:03:37.100Z,5.00
2023-03-10T11:06:31.735Z,4.90
2023-03-10T11:09:29.704Z,5.10
2023-03-10T11:12:19.536Z,4.20
2023-03-10T11:15:03.063Z,5.20
2023-03-10T11:17:38.127Z,4.30
2023-03-10T11:20:46.598Z,4.50
2023-03-10T11:23:36.321Z,4.20
2023-03-10T11:26:30.685Z,4.50
2023-03-10T11:29:13.895Z,4.40
2023-03-10T11:32:12.329Z,3.60
2023-03-10T11:34:45.443Z,3.90
2023-03-10T11:37:13.876Z,3.40
2023-03-10T11:39:54.155Z,3.30
2023-03-10T11:42:37.216Z,3.60
2023-03-10T11:45:20.727Z,3.30
2023-03-10T11:47:59.999Z,3.40
2023-03-10T11:50:47.975Z,3.20
2023-03-10T11:53:40.395Z,3.00
2023-03-10T11:56:11.925Z,3.00
2023-03-10T11:58:55.396Z,3.30
2023-03-10T12:01:30.725Z,3.30
2023-03-10T12:04:23.181Z,3.30
2023-03-10T12:09:39.832Z,2.90
2023-03-10T12:12:13.315Z,2.60
2023-03-10T12:14:43.151Z,2.70
2023-03-10T12:17:18.102Z,2.30
2023-03-10T12:20:16.655Z,2.60
2023-03-10T12:22:55.144Z,2.60
2023-03-10T12:25:37.907Z,2.90
2023-03-10T12:28:21.262Z,3.60
2023-03-10T12:31:10.081Z,3.10
2023-03-10T12:33:40.682Z,2.40
2023-03-10T12:36:35.938Z,2.00
2023-03-10T12:39:40.109Z,2.00
2023-03-10T12:42:26.486Z,2.40
2023-03-10T12:45:06.060Z,1.90
2023-03-10T12:47:44.303Z,1.90
2023-03-10T12:50:31.650Z,1.50
2023-03-10T12:53:07.704Z,1.80
2023-03-10T12:55:41.261Z,1.80
2023-03-10T12:58:21.710Z,1.90
2023-03-10T13:00:50.505Z,2.40
2023-03-10T13:03:49.724Z,2.30
2023-03-10T13:06:21.810Z,2.10
2023-03-10T13:09:30.736Z,2.40
2023-03-10T13:12:13.495Z,2.30
2023-03-10T13:14:41.913Z,2.30
2023-03-10T13:17:25.754Z,2.30
2023-03-10T13:20:10.875Z,2.80
2023-03-10T13:22:37.874Z,2.50
2023-03-10T13:25:11.956Z,2.90
2023-03-10T13:27:38.938Z,2.70
2023-03-10T13:30:33.485Z,2.80
2023-03-10T13:33:09.836Z,2.50
2023-03-10T13:35:41.423Z,2.40
2023-03-10T13:38:20.815Z,2.40
2023-03-10T13:40:57.639Z,2.20
2023-03-10T13:43:37.923Z,2.20
2023-03-10T13:46:32.942Z,2.20
2023-03-10T13:49:05.922Z,2.40
2023-03-10T13:51:36.943Z,2.50
2023-03-10T13:54:17.924Z,2.10
2023-03-10T13:57:30.507Z,3.10
2023-03-10T14:00:00.909Z,3.00
2023-03-10T14:02:47.791Z,2.50
2023-03-10T14:05:45.280Z,2.50
2023-03-10T14:08:27.996Z,2.50
2023-03-10T14:11:30.416Z,2.50
2023-03-10T14:14:04.338Z,2.30
2023-03-10T14:16:53.962Z,2.20
2023-03-10T14:19:48.768Z,1.70
2023-03-10T14:22:32.626Z,2.00
2023-03-10T14:25:01.259Z,2.40
2023-03-10T14:27:33.362Z,2.50
2023-03-10T14:30:14.428Z,2.10
2023-03-10T14:32:45.731Z,2.50
2023-03-10T14:35:14.519Z,2.20
2023-03-10T14:37:58.773Z,2.30
2023-03-10T14:40:26.150Z,2.50
2023-03-10T14:43:16.286Z,2.50
2023-03-10T14:45:52.127Z,2.10
2023-03-10T14:48:27.578Z,2.50
2023-03-10T14:50:57.283Z,3.40
2023-03-10T14:53:26.242Z,3.20
2023-03-10T14:56:01.302Z,3.40
2023-03-10T14:58:32.802Z,3.60
2023-03-10T15:01:05.236Z,4.60
2023-03-10T15:03:32.305Z,4.00
2023-03-10T15:05:59.329Z,4.00
2023-03-10T15:08:27.539Z,3.60
2023-03-10T15:10:55.677Z,3.20
2023-03-10T15:13:40.520Z,3.40
2023-03-10T15:16:13.726Z,24.30
2023-03-10T15:18:43.924Z,15.90
2023-03-10T15:21:19.122Z,8.50
2023-03-10T15:23:47.252Z,5.60
2023-03-10T15:26:32.264Z,4.60
2023-03-10T15:28:59.856Z,4.10
2023-03-10T15:31:26.763Z,4.20
2023-03-10T15:33:53.562Z,3.70
2023-03-10T15:36:20.944Z,4.20
2023-03-10T15:38:47.896Z,4.00
2023-03-10T15:41:26.924Z,3.60
2023-03-10T15:43:56.029Z,3.70
2023-03-10T15:46:23.027Z,3.70
2023-03-10T15:48:54.086Z,3.70
2023-03-10T15:51:21.725Z,3.60
2023-03-10T15:53:49.484Z,4.00
2023-03-10T15:56:25.356Z,6.10
2023-03-10T15:58:52.531Z,8.10
2023-03-10T16:01:24.111Z,6.70
2023-03-10T16:03:51.007Z,4.70
2023-03-10T16:06:17.950Z,7.10
2023-03-10T16:08:44.712Z,8.40
2023-03-10T16:11:18.089Z,9.60
2023-03-10T16:13:50.685Z,8.60
2023-03-10T16:16:22.472Z,8.40
2023-03-10T16:18:51.657Z,8.10
2023-03-10T16:21:22.443Z,8.80
2023-03-10T16:23:49.634Z,8.50
2023-03-10T16:26:19.369Z,8.80
2023-03-10T16:28:53.005Z,8.30
2023-03-10T16:31:22.529Z,8.50
2023-03-10T16:33:52.735Z,6.60
2023-03-10T16:36:28.144Z,6.40
2023-03-10T16:39:00.083Z,6.40
2023-03-10T16:41:29.345Z,6.00
2023-03-10T16:43:57.024Z,6.80
2023-03-10T16:46:25.842Z,6.80
2023-03-10T16:49:14.083Z,6.10
2023-03-10T16:51:43.585Z,6.10
2023-03-10T16:54:19.296Z,5.20
2023-03-10T16:56:49.279Z,5.10
2023-03-10T16:59:19.143Z,5.80
2023-03-10T17:01:46.802Z,6.00
2023-03-10T17:04:14.175Z,7.40
2023-03-10T17:06:43.807Z,6.00
2023-03-10T17:09:12.548Z,4.80
2023-03-10T17:11:43.712Z,4.60
2023-03-10T17:14:15.190Z,5.30
2023-03-10T17:16:44.062Z,5.50
2023-03-10T17:19:29.333Z,6.00
2023-03-10T17:21:57.751Z,8.10
2023-03-10T17:24:25.482Z,7.90
2023-03-10T17:26:52.901Z,8.50
2023-03-10T17:29:26.479Z,9.40
2023-03-10T17:31:57.562Z,13.50
2023-03-10T17:34:26.507Z,14.20
2023-03-10T17:36:53.492Z,12.30
2023-03-10T17:39:30.741Z,12.10
2023-03-10T17:41:57.827Z,9.60
2023-03-10T17:44:25.027Z,10.00
2023-03-10T17:47:06.541Z,11.90
2023-03-10T17:49:35.876Z,12.20
2023-03-10T17:52:03.666Z,18.90
2023-03-10T17:54:34.310Z,21.00
2023-03-10T17:57:01.183Z,17.20
2023-03-10T18:02:13.448Z,14.30
2023-03-10T18:04:44.533Z,16.40
2023-03-10T18:09:54.075Z,18.40
2023-03-10T18:12:22.093Z,13.60
2023-03-10T18:14:49.024Z,16.50
2023-03-10T18:17:15.926Z,19.70
2023-03-10T18:19:44.041Z,25.60
2023-03-10T18:22:14.053Z,23.40
2023-03-10T18:24:40.958Z,70.80
2023-03-10T18:27:08.519Z,48.30
2023-03-10T18:29:36.890Z,28.70
2023-03-10T18:32:05.778Z,40.80
2023-03-10T18:34:33.152Z,35.90
2023-03-10T18:37:05.833Z,21.10
2023-03-10T18:39:51.276Z,6.30
2023-03-10T18:42:21.917Z,5.70
2023-03-10T18:47:55.639Z,6.00
2023-03-10T18:50:26.492Z,8.20
2023-03-10T18:53:06.634Z,7.90
2023-03-10T18:55:36.335Z,8.70
2023-03-10T18:58:04.559Z,4.00
2023-03-10T19:00:35.744Z,3.20
2023-03-10T19:03:13.226Z,3.20
2023-03-10T19:06:10.683Z,2.80
2023-03-10T19:08:41.470Z,2.70
2023-03-10T19:11:16.607Z,2.70
2023-03-10T19:13:44.492Z,2.50
2023-03-10T19:16:17.448Z,2.20
2023-03-10T19:18:50.139Z,2.30
2023-03-10T19:21:26.454Z,2.60
2023-03-10T19:23:57.001Z,2.80
2023-03-10T19:26:34.552Z,2.60
2023-03-10T19:29:05.816Z,2.20
2023-03-10T19:31:37.323Z,2.40
2023-03-10T19:34:14.213Z,2.30
2023-03-10T19:36:43.576Z,2.20
2023-03-10T19:39:15.665Z,2.00
2023-03-10T19:41:46.925Z,2.80
2023-03-10T19:44:17.045Z,2.90
2023-03-10T19:46:45.630Z,2.80
2023-03-10T19:49:29.800Z,2.90
2023-03-10T19:51:58.044Z,3.00
2023-03-10T19:54:26.633Z,3.40
2023-03-10T19:56:58.280Z,2.30
2023-03-10T19:59:27.804Z,2.50
2023-03-10T20:02:01.194Z,2.00
2023-03-10T20:04:34.802Z,2.00
2023-03-10T20:07:05.174Z,3.00
2023-03-10T20:09:34.613Z,4.10
2023-03-10T20:12:08.239Z,4.60
2023-03-10T20:14:39.273Z,5.40
2023-03-10T20:17:06.502Z,3.00
2023-03-10T20:19:38.835Z,2.30
2023-03-10T20:22:06.418Z,3.40
2023-03-10T20:24:33.658Z,3.80
2023-03-10T20:27:02.652Z,3.70
2023-03-10T20:29:32.344Z,4.20
2023-03-10T20:32:05.600Z,3.80
2023-03-10T20:34:36.749Z,3.40
2023-03-10T20:37:04.204Z,3.00
2023-03-10T20:39:33.973Z,3.00
2023-03-10T20:42:01.229Z,3.50
2023-03-10T20:44:28.651Z,3.30
2023-03-10T20:46:59.731Z,3.20
2023-03-10T20:49:59.489Z,3.10
2023-03-10T20:52:29.027Z,2.70
2023-03-10T20:54:58.628Z,2.40
2023-03-10T20:57:34.565Z,2.60
2023-03-10T21:00:06.976Z,2.70
2023-03-10T21:02:34.663Z,2.50
2023-03-10T21:05:07.999Z,2.40
2023-03-10T21:07:35.596Z,2.30
2023-03-10T21:10:06.848Z,2.40
2023-03-10T21:12:38.061Z,2.00
2023-03-10T21:15:13.502Z,2.10
2023-03-10T21:17:50.340Z,2.80
2023-03-10T21:20:27.027Z,2.60
2023-03-10T21:22:55.455Z,2.60
2023-03-10T21:25:34.518Z,3.30
2023-03-10T21:28:03.192Z,3.00
2023-03-10T21:30:35.005Z,3.00
2023-03-10T21:33:09.372Z,2.30
2023-03-10T21:35:41.504Z,2.90
2023-03-10T21:38:10.860Z,3.00
2023-03-10T21:40:55.868Z,3.10
2023-03-10T21:43:29.215Z,3.10
2023-03-10T21:45:57.439Z,3.90
2023-03-10T21:48:25.971Z,4.50
2023-03-10T21:50:56.560Z,4.70
2023-03-10T21:53:29.738Z,4.70
2023-03-10T21:56:01.832Z,6.00
2023-03-10T21:58:29.446Z,6.30
2023-03-10T22:01:03.643Z,8.00
2023-03-10T22:03:48.653Z,7.90
2023-03-10T22:06:24.914Z,6.10
2023-03-10T22:08:52.180Z,5.80
2023-03-10T22:11:21.406Z,5.80
2023-03-10T22:13:52.511Z,5.20
2023-03-10T22:16:21.123Z,4.90
2023-03-10T22:18:49.197Z,5.20
2023-03-10T22:21:20.192Z,5.20
2023-03-10T22:23:50.776Z,6.00
2023-03-10T22:26:34.999Z,6.00
2023-03-10T22:29:04.255Z,6.30
2023-03-10T22:31:37.010Z,5.80
2023-03-10T22:34:09.614Z,5.20
2023-03-10T22:36:36.551Z,5.90
2023-03-10T22:39:11.583Z,5.90
2023-03-10T22:41:43.234Z,6.10
2023-03-10T22:44:11.234Z,4.70
2023-03-10T22:46:46.390Z,5.10
2023-03-10T22:49:16.057Z,5.40
2023-03-10T22:51:46.333Z,5.40
2023-03-10T22:54:16.582Z,6.00
2023-03-10T22:56:56.781Z,5.70
2023-03-10T22:59:28.407Z,5.60
2023-03-10T23:01:55.251Z,5.00
2023-03-10T23:04:22.224Z,5.40
2023-03-10T23:07:04.905Z,5.00
2023-03-10T23:09:36.361Z,5.30
2023-03-10T23:12:13.664Z,4.90
2023-03-10T23:14:45.202Z,5.10
2023-03-10T23:17:14.668Z,4.70
2023-03-10T23:19:44.833Z,4.80
2023-03-10T23:22:16.501Z,4.60
2023-03-10T23:24:46.087Z,4.30
2023-03-10T23:27:16.564Z,4.40
2023-03-10T23:29:46.255Z,5.30
2023-03-10T23:32:17.496Z,4.90
2023-03-10T23:34:50.560Z,4.80
2023-03-10T23:37:18.306Z,4.70
2023-03-10T23:39:48.316Z,4.50
2023-03-10T23:42:15.464Z,4.40
2023-03-10T23:44:44.304Z,4.00
2023-03-10T23:47:12.463Z,3.50
2023-03-10T23:49:48.294Z,3.70
2023-03-10T23:52:18.200Z,4.00
2023-03-10T23:54:45.078Z,3.10
2023-03-10T23:57:13.725Z,3.20
2023-03-10T23:59:43.460Z,3.00
